sensor_id;sensor_type;location;lat;lon;timestamp;pressure;altitude;pressure_sealevel;temperature;humidity
23253;BME280;11795;47.054;15.408;2022-12-18T00:00:56;98710;;;-1.0;91.9
23253;BME280;11795;47.054;15.408;2022-12-18T00:02:56;98710;;;-1.1;91.7
23253;BME280;11795;47.054;15.408;2022-12-18T00:04:59;98710;;;-1.2;91.9
23253;BME280;11795;47.054;15.408;2022-12-18T00:06:56;98720;;;-1.0;91.3
23253;BME280;11795;47.054;15.408;2022-12-18T00:08:57;98720;;;-1.2;91.6
23253;BME280;11795;47.054;15.408;2022-12-18T00:11:03;98710;;;-1.1;91.5
23253;BME280;11795;47.054;15.408;2022-12-18T00:12:56;98720;;;-1.2;91.5
23253;BME280;11795;47.054;15.408;2022-12-18T00:14:56;98720;;;-1.3;91.7
23253;BME280;11795;47.054;15.408;2022-12-18T00:16:58;98720;;;-1.2;91.4
23253;BME280;11795;47.054;15.408;2022-12-18T00:18:57;98730;;;-1.4;91.9
23253;BME280;11795;47.054;15.408;2022-12-18T00:20:59;98730;;;-1.2;92.1
23253;BME280;11795;47.054;15.408;2022-12-18T00:22:56;98730;;;-1.3;91.5
23253;BME280;11795;47.054;15.408;2022-12-18T00:24:56;98730;;;-1.4;91.9
23253;BME280;11795;47.054;15.408;2022-12-18T00:26:56;98740;;;-1.2;91.5
23253;BME280;11795;47.054;15.408;2022-12-18T00:28:58;98740;;;-1.4;91.6
23253;BME280;11795;47.054;15.408;2022-12-18T00:31:00;98740;;;-1.3;92.0
23253;BME280;11795;47.054;15.408;2022-12-18T00:32:57;98750;;;-1.4;91.9
23253;BME280;11795;47.054;15.408;2022-12-18T00:34:56;98750;;;-1.5;92.5
23253;BME280;11795;47.054;15.408;2022-12-18T00:36:56;98750;;;-1.3;92.3
23253;BME280;11795;47.054;15.408;2022-12-18T00:38:58;98760;;;-1.4;92.5
23253;BME280;11795;47.054;15.408;2022-12-18T00:40:56;98760;;;-1.3;92.7
23253;BME280;11795;47.054;15.408;2022-12-18T00:42:56;98760;;;-1.3;92.4
23253;BME280;11795;47.054;15.408;2022-12-18T00:44:56;98760;;;-1.4;92.7
23253;BME280;11795;47.054;15.408;2022-12-18T00:46:56;98760;;;-1.3;92.5
23253;BME280;11795;47.054;15.408;2022-12-18T00:48:56;98760;;;-1.4;92.7
23253;BME280;11795;47.054;15.408;2022-12-18T00:50:56;98770;;;-1.2;92.8
23253;BME280;11795;47.054;15.408;2022-12-18T00:52:56;98770;;;-1.3;92.5
23253;BME280;11795;47.054;15.408;2022-12-18T00:54:56;98770;;;-1.4;92.7
23253;BME280;11795;47.054;15.408;2022-12-18T00:56:56;98770;;;-1.3;92.3
23253;BME280;11795;47.054;15.408;2022-12-18T00:58:56;98770;;;-1.4;92.5
23253;BME280;11795;47.054;15.408;2022-12-18T01:00:56;98770;;;-1.3;92.6
23253;BME280;11795;47.054;15.408;2022-12-18T01:02:56;98760;;;-1.4;92.2
23253;BME280;11795;47.054;15.408;2022-12-18T01:04:56;98770;;;-1.5;92.4
23253;BME280;11795;47.054;15.408;2022-12-18T01:06:56;98770;;;-1.4;92.0
23253;BME280;11795;47.054;15.408;2022-12-18T01:08:57;98780;;;-1.6;92.2
23253;BME280;11795;47.054;15.408;2022-12-18T01:10:56;98780;;;-1.5;92.6
23253;BME280;11795;47.054;15.408;2022-12-18T01:12:56;98780;;;-1.6;92.1
23253;BME280;11795;47.054;15.408;2022-12-18T01:14:56;98780;;;-1.6;92.3
23253;BME280;11795;47.054;15.408;2022-12-18T01:16:56;98790;;;-1.5;91.6
23253;BME280;11795;47.054;15.408;2022-12-18T01:18:58;98790;;;-1.7;91.8
23253;BME280;11795;47.054;15.408;2022-12-18T01:20:56;98790;;;-1.7;91.9
23253;BME280;11795;47.054;15.408;2022-12-18T01:22:56;98790;;;-1.8;91.7
23253;BME280;11795;47.054;15.408;2022-12-18T01:24:56;98800;;;-1.8;91.9
23253;BME280;11795;47.054;15.408;2022-12-18T01:26:57;98800;;;-1.8;91.3
23253;BME280;11795;47.054;15.408;2022-12-18T01:28:57;98800;;;-1.9;91.7
23253;BME280;11795;47.054;15.408;2022-12-18T01:30:56;98800;;;-1.9;91.9
23253;BME280;11795;47.054;15.408;2022-12-18T01:32:56;98810;;;-1.9;91.9
23253;BME280;11795;47.054;15.408;2022-12-18T01:34:56;98800;;;-1.9;91.9
23253;BME280;11795;47.054;15.408;2022-12-18T01:36:56;98800;;;-1.9;91.6
23253;BME280;11795;47.054;15.408;2022-12-18T01:38:59;98800;;;-2.0;91.8
23253;BME280;11795;47.054;15.408;2022-12-18T01:40:57;98810;;;-1.9;91.9
23253;BME280;11795;47.054;15.408;2022-12-18T01:42:56;98810;;;-1.9;91.3
23253;BME280;11795;47.054;15.408;2022-12-18T01:44:59;98820;;;-2.0;91.5
23253;BME280;11795;47.054;15.408;2022-12-18T01:46:56;98820;;;-2.0;91.3
23253;BME280;11795;47.054;15.408;2022-12-18T01:48:59;98820;;;-2.1;91.4
23253;BME280;11795;47.054;15.408;2022-12-18T01:50:56;98820;;;-2.0;91.4
23253;BME280;11795;47.054;15.408;2022-12-18T01:53:00;98830;;;-2.2;91.2
23253;BME280;11795;47.054;15.408;2022-12-18T01:54:57;98830;;;-2.2;91.4
23253;BME280;11795;47.054;15.408;2022-12-18T01:56:56;98830;;;-2.2;91.1
23253;BME280;11795;47.054;15.408;2022-12-18T01:59:00;98840;;;-2.3;91.4
23253;BME280;11795;47.054;15.408;2022-12-18T02:00:56;98840;;;-2.2;91.7
23253;BME280;11795;47.054;15.408;2022-12-18T02:02:57;98840;;;-2.3;91.7
23253;BME280;11795;47.054;15.408;2022-12-18T02:04:58;98840;;;-2.4;92.0
23253;BME280;11795;47.054;15.408;2022-12-18T02:07:01;98850;;;-2.3;91.8
23253;BME280;11795;47.054;15.408;2022-12-18T02:09:02;98850;;;-2.5;92.4
23253;BME280;11795;47.054;15.408;2022-12-18T02:11:00;98840;;;-2.3;92.5
23253;BME280;11795;47.054;15.408;2022-12-18T02:12:59;98850;;;-2.3;92.3
23253;BME280;11795;47.054;15.408;2022-12-18T02:15:00;98850;;;-2.5;92.3
23253;BME280;11795;47.054;15.408;2022-12-18T02:17:00;98850;;;-2.4;92.3
23253;BME280;11795;47.054;15.408;2022-12-18T02:18:59;98850;;;-2.6;92.8
23253;BME280;11795;47.054;15.408;2022-12-18T02:21:02;98850;;;-2.5;93.1
23253;BME280;11795;47.054;15.408;2022-12-18T02:23:06;98860;;;-2.5;93.0
23253;BME280;11795;47.054;15.408;2022-12-18T02:25:01;98850;;;-2.5;93.0
23253;BME280;11795;47.054;15.408;2022-12-18T02:26:58;98860;;;-2.4;92.9
23253;BME280;11795;47.054;15.408;2022-12-18T02:29:00;98860;;;-2.5;93.2
23253;BME280;11795;47.054;15.408;2022-12-18T02:30:58;98860;;;-2.4;93.6
23253;BME280;11795;47.054;15.408;2022-12-18T02:32:57;98860;;;-2.5;93.3
23253;BME280;11795;47.054;15.408;2022-12-18T02:34:57;98860;;;-2.5;93.5
23253;BME280;11795;47.054;15.408;2022-12-18T02:36:58;98860;;;-2.4;93.1
23253;BME280;11795;47.054;15.408;2022-12-18T02:38:58;98860;;;-2.5;93.1
23253;BME280;11795;47.054;15.408;2022-12-18T02:40:57;98850;;;-2.4;93.0
23253;BME280;11795;47.054;15.408;2022-12-18T02:43:02;98860;;;-2.5;92.7
23253;BME280;11795;47.054;15.408;2022-12-18T02:44:56;98850;;;-2.6;92.8
23253;BME280;11795;47.054;15.408;2022-12-18T02:46:56;98860;;;-2.5;92.6
23253;BME280;11795;47.054;15.408;2022-12-18T02:49:03;98860;;;-2.7;92.9
23253;BME280;11795;47.054;15.408;2022-12-18T02:51:03;98860;;;-2.6;93.2
23253;BME280;11795;47.054;15.408;2022-12-18T02:53:04;98870;;;-2.7;93.0
23253;BME280;11795;47.054;15.408;2022-12-18T02:55:02;98870;;;-2.7;93.1
23253;BME280;11795;47.054;15.408;2022-12-18T02:57:01;98870;;;-2.5;92.6
23253;BME280;11795;47.054;15.408;2022-12-18T02:58:59;98880;;;-2.7;92.6
23253;BME280;11795;47.054;15.408;2022-12-18T03:01:01;98880;;;-2.6;92.8
23253;BME280;11795;47.054;15.408;2022-12-18T03:03:01;98880;;;-2.7;92.7
23253;BME280;11795;47.054;15.408;2022-12-18T03:05:01;98880;;;-2.8;93.0
23253;BME280;11795;47.054;15.408;2022-12-18T03:06:58;98880;;;-2.7;92.4
23253;BME280;11795;47.054;15.408;2022-12-18T03:08:59;98890;;;-2.8;92.6
23253;BME280;11795;47.054;15.408;2022-12-18T03:11:00;98890;;;-2.8;92.8
23253;BME280;11795;47.054;15.408;2022-12-18T03:13:00;98890;;;-2.9;92.6
23253;BME280;11795;47.054;15.408;2022-12-18T03:15:00;98900;;;-2.9;92.9
23253;BME280;11795;47.054;15.408;2022-12-18T03:17:00;98890;;;-2.8;92.6
23253;BME280;11795;47.054;15.408;2022-12-18T03:19:01;98890;;;-2.9;92.8
23253;BME280;11795;47.054;15.408;2022-12-18T03:20:58;98890;;;-2.8;92.9
23253;BME280;11795;47.054;15.408;2022-12-18T03:23:00;98900;;;-2.9;92.5
23253;BME280;11795;47.054;15.408;2022-12-18T03:24:57;98890;;;-3.1;92.7
23253;BME280;11795;47.054;15.408;2022-12-18T03:27:00;98890;;;-2.9;92.6
23253;BME280;11795;47.054;15.408;2022-12-18T03:29:04;98880;;;-3.1;92.8
23253;BME280;11795;47.054;15.408;2022-12-18T03:30:59;98880;;;-3.0;93.0
23253;BME280;11795;47.054;15.408;2022-12-18T03:33:00;98880;;;-3.1;92.7
23253;BME280;11795;47.054;15.408;2022-12-18T03:34:58;98880;;;-3.2;93.0
23253;BME280;11795;47.054;15.408;2022-12-18T03:36:58;98890;;;-3.1;92.9
23253;BME280;11795;47.054;15.408;2022-12-18T03:38:56;98890;;;-3.2;93.0
23253;BME280;11795;47.054;15.408;2022-12-18T03:40:59;98900;;;-3.1;93.2
23253;BME280;11795;47.054;15.408;2022-12-18T03:43:01;98900;;;-3.1;93.0
23253;BME280;11795;47.054;15.408;2022-12-18T03:45:03;98890;;;-3.1;93.1
23253;BME280;11795;47.054;15.408;2022-12-18T03:47:05;98890;;;-3.2;92.6
23253;BME280;11795;47.054;15.408;2022-12-18T03:49:01;98890;;;-3.3;92.9
23253;BME280;11795;47.054;15.408;2022-12-18T03:50:59;98900;;;-3.2;93.1
23253;BME280;11795;47.054;15.408;2022-12-18T03:52:59;98900;;;-3.2;92.8
23253;BME280;11795;47.054;15.408;2022-12-18T03:54:58;98910;;;-3.2;92.9
23253;BME280;11795;47.054;15.408;2022-12-18T03:56:58;98910;;;-3.1;92.6
23253;BME280;11795;47.054;15.408;2022-12-18T03:58:58;98910;;;-3.2;92.7
23253;BME280;11795;47.054;15.408;2022-12-18T04:01:00;98910;;;-3.1;92.9
23253;BME280;11795;47.054;15.408;2022-12-18T04:02:57;98910;;;-3.2;92.4
23253;BME280;11795;47.054;15.408;2022-12-18T04:04:59;98920;;;-3.3;92.5
23253;BME280;11795;47.054;15.408;2022-12-18T04:06:57;98920;;;-3.2;92.2
23253;BME280;11795;47.054;15.408;2022-12-18T04:08:57;98920;;;-3.3;92.3
23253;BME280;11795;47.054;15.408;2022-12-18T04:10:56;98920;;;-3.2;92.3
23253;BME280;11795;47.054;15.408;2022-12-18T04:12:57;98920;;;-3.3;91.9
23253;BME280;11795;47.054;15.408;2022-12-18T04:14:57;98920;;;-3.4;92.2
23253;BME280;11795;47.054;15.408;2022-12-18T04:16:56;98920;;;-3.2;92.0
23253;BME280;11795;47.054;15.408;2022-12-18T04:18:57;98920;;;-3.3;92.1
23253;BME280;11795;47.054;15.408;2022-12-18T04:20:57;98910;;;-3.3;92.1
23253;BME280;11795;47.054;15.408;2022-12-18T04:22:57;98920;;;-3.4;91.6
23253;BME280;11795;47.054;15.408;2022-12-18T04:24:57;98930;;;-3.4;92.0
23253;BME280;11795;47.054;15.408;2022-12-18T04:26:56;98930;;;-3.2;91.7
23253;BME280;11795;47.054;15.408;2022-12-18T04:28:56;98940;;;-3.3;91.5
23253;BME280;11795;47.054;15.408;2022-12-18T04:30:56;98940;;;-3.3;91.5
23253;BME280;11795;47.054;15.408;2022-12-18T04:32:56;98950;;;-3.4;91.2
23253;BME280;11795;47.054;15.408;2022-12-18T04:34:56;98950;;;-3.5;91.5
23253;BME280;11795;47.054;15.408;2022-12-18T04:36:56;98960;;;-3.3;91.1
23253;BME280;11795;47.054;15.408;2022-12-18T04:38:57;98950;;;-3.4;90.9
23253;BME280;11795;47.054;15.408;2022-12-18T04:40:56;98950;;;-3.3;90.7
23253;BME280;11795;47.054;15.408;2022-12-18T04:42:57;98960;;;-3.4;90.4
23253;BME280;11795;47.054;15.408;2022-12-18T04:44:57;98950;;;-3.5;90.6
23253;BME280;11795;47.054;15.408;2022-12-18T04:46:57;98960;;;-3.4;90.2
23253;BME280;11795;47.054;15.408;2022-12-18T04:48:56;98960;;;-3.5;90.4
23253;BME280;11795;47.054;15.408;2022-12-18T04:50:57;98970;;;-3.5;90.6
23253;BME280;11795;47.054;15.408;2022-12-18T04:52:57;98970;;;-3.5;90.4
23253;BME280;11795;47.054;15.408;2022-12-18T04:54:57;98970;;;-3.6;90.6
23253;BME280;11795;47.054;15.408;2022-12-18T04:56:56;98980;;;-3.5;90.4
23253;BME280;11795;47.054;15.408;2022-12-18T04:58:57;98980;;;-3.6;90.6
23253;BME280;11795;47.054;15.408;2022-12-18T05:00:57;98980;;;-3.5;90.7
23253;BME280;11795;47.054;15.408;2022-12-18T05:02:56;98980;;;-3.6;90.4
23253;BME280;11795;47.054;15.408;2022-12-18T05:04:56;98980;;;-3.7;90.6
23253;BME280;11795;47.054;15.408;2022-12-18T05:06:57;98980;;;-3.5;90.4
23253;BME280;11795;47.054;15.408;2022-12-18T05:08:57;98980;;;-3.6;90.2
23253;BME280;11795;47.054;15.408;2022-12-18T05:10:58;98980;;;-3.6;90.4
23253;BME280;11795;47.054;15.408;2022-12-18T05:13:00;98990;;;-3.6;90.2
23253;BME280;11795;47.054;15.408;2022-12-18T05:14:57;98990;;;-3.7;90.6
23253;BME280;11795;47.054;15.408;2022-12-18T05:16:57;98990;;;-3.6;90.5
23253;BME280;11795;47.054;15.408;2022-12-18T05:18:57;98990;;;-3.7;90.6
23253;BME280;11795;47.054;15.408;2022-12-18T05:20:57;99000;;;-3.6;90.8
23253;BME280;11795;47.054;15.408;2022-12-18T05:22:57;99000;;;-3.7;90.5
23253;BME280;11795;47.054;15.408;2022-12-18T05:24:57;99000;;;-3.8;90.6
23253;BME280;11795;47.054;15.408;2022-12-18T05:26:57;99000;;;-3.6;90.5
23253;BME280;11795;47.054;15.408;2022-12-18T05:28:56;99010;;;-3.7;90.6
23253;BME280;11795;47.054;15.408;2022-12-18T05:30:58;99010;;;-3.7;90.7
23253;BME280;11795;47.054;15.408;2022-12-18T05:32:57;99010;;;-3.7;90.5
23253;BME280;11795;47.054;15.408;2022-12-18T05:34:57;99010;;;-3.8;90.6
23253;BME280;11795;47.054;15.408;2022-12-18T05:36:57;99020;;;-3.7;90.5
23253;BME280;11795;47.054;15.408;2022-12-18T05:38:57;99010;;;-3.8;90.5
23253;BME280;11795;47.054;15.408;2022-12-18T05:40:57;99010;;;-3.7;90.8
23253;BME280;11795;47.054;15.408;2022-12-18T05:42:57;99020;;;-3.7;90.6
23253;BME280;11795;47.054;15.408;2022-12-18T05:44:57;99020;;;-3.7;90.7
23253;BME280;11795;47.054;15.408;2022-12-18T05:46:57;99020;;;-3.6;90.6
23253;BME280;11795;47.054;15.408;2022-12-18T05:48:59;99020;;;-3.7;90.8
23253;BME280;11795;47.054;15.408;2022-12-18T05:51:03;99020;;;-3.5;90.7
23253;BME280;11795;47.054;15.408;2022-12-18T05:52:57;99020;;;-3.6;90.7
23253;BME280;11795;47.054;15.408;2022-12-18T05:54:57;99020;;;-3.6;90.9
23253;BME280;11795;47.054;15.408;2022-12-18T05:56:57;99020;;;-3.5;90.6
23253;BME280;11795;47.054;15.408;2022-12-18T05:58:57;99020;;;-3.6;90.7
23253;BME280;11795;47.054;15.408;2022-12-18T06:00:57;99020;;;-3.5;90.9
23253;BME280;11795;47.054;15.408;2022-12-18T06:02:57;99030;;;-3.6;90.6
23253;BME280;11795;47.054;15.408;2022-12-18T06:04:57;99030;;;-3.6;90.9
23253;BME280;11795;47.054;15.408;2022-12-18T06:06:57;99030;;;-3.5;90.5
23253;BME280;11795;47.054;15.408;2022-12-18T06:08:57;99040;;;-3.6;90.6
23253;BME280;11795;47.054;15.408;2022-12-18T06:10:57;99040;;;-3.5;90.7
23253;BME280;11795;47.054;15.408;2022-12-18T06:12:57;99040;;;-3.5;90.3
23253;BME280;11795;47.054;15.408;2022-12-18T06:14:57;99040;;;-3.6;90.5
23253;BME280;11795;47.054;15.408;2022-12-18T06:16:57;99040;;;-3.5;90.2
23253;BME280;11795;47.054;15.408;2022-12-18T06:18:58;99040;;;-3.6;90.4
23253;BME280;11795;47.054;15.408;2022-12-18T06:20:58;99050;;;-3.6;90.4
23253;BME280;11795;47.054;15.408;2022-12-18T06:22:57;99050;;;-3.6;90.1
23253;BME280;11795;47.054;15.408;2022-12-18T06:24:57;99060;;;-3.7;90.2
23253;BME280;11795;47.054;15.408;2022-12-18T06:26:57;99070;;;-3.7;90.0
23253;BME280;11795;47.054;15.408;2022-12-18T06:28:57;99070;;;-3.7;90.2
23253;BME280;11795;47.054;15.408;2022-12-18T06:30:57;99070;;;-3.6;90.4
23253;BME280;11795;47.054;15.408;2022-12-18T06:32:57;99070;;;-3.6;90.1
23253;BME280;11795;47.054;15.408;2022-12-18T06:34:57;99080;;;-3.6;90.3
23253;BME280;11795;47.054;15.408;2022-12-18T06:36:57;99080;;;-3.5;90.1
23253;BME280;11795;47.054;15.408;2022-12-18T06:38:57;99080;;;-3.6;90.5
23253;BME280;11795;47.054;15.408;2022-12-18T06:40:57;99080;;;-3.5;90.6
23253;BME280;11795;47.054;15.408;2022-12-18T06:42:57;99090;;;-3.5;90.3
23253;BME280;11795;47.054;15.408;2022-12-18T06:44:57;99080;;;-3.5;90.5
23253;BME280;11795;47.054;15.408;2022-12-18T06:46:57;99090;;;-3.4;90.3
23253;BME280;11795;47.054;15.408;2022-12-18T06:48:57;99090;;;-3.5;90.4
23253;BME280;11795;47.054;15.408;2022-12-18T06:50:57;99090;;;-3.4;90.5
23253;BME280;11795;47.054;15.408;2022-12-18T06:52:57;99090;;;-3.4;90.3
23253;BME280;11795;47.054;15.408;2022-12-18T06:54:57;99100;;;-3.4;90.5
23253;BME280;11795;47.054;15.408;2022-12-18T06:56:57;99090;;;-3.3;90.3
23253;BME280;11795;47.054;15.408;2022-12-18T06:58:57;99100;;;-3.3;90.5
23253;BME280;11795;47.054;15.408;2022-12-18T07:00:59;99110;;;-3.3;90.6
23253;BME280;11795;47.054;15.408;2022-12-18T07:02:57;99110;;;-3.3;90.5
23253;BME280;11795;47.054;15.408;2022-12-18T07:04:57;99110;;;-3.3;90.7
23253;BME280;11795;47.054;15.408;2022-12-18T07:06:57;99100;;;-3.1;90.4
23253;BME280;11795;47.054;15.408;2022-12-18T07:08:57;99110;;;-3.2;90.5
23253;BME280;11795;47.054;15.408;2022-12-18T07:10:57;99110;;;-3.2;90.9
23253;BME280;11795;47.054;15.408;2022-12-18T07:12:57;99110;;;-3.1;90.7
23253;BME280;11795;47.054;15.408;2022-12-18T07:14:57;99110;;;-3.2;90.8
23253;BME280;11795;47.054;15.408;2022-12-18T07:16:57;99110;;;-3.0;90.6
23253;BME280;11795;47.054;15.408;2022-12-18T07:18:57;99110;;;-3.1;90.7
23253;BME280;11795;47.054;15.408;2022-12-18T07:20:57;99110;;;-2.9;90.8
23253;BME280;11795;47.054;15.408;2022-12-18T07:22:57;99120;;;-2.9;90.5
23253;BME280;11795;47.054;15.408;2022-12-18T07:24:57;99120;;;-3.0;90.7
23253;BME280;11795;47.054;15.408;2022-12-18T07:26:57;99120;;;-2.8;90.4
23253;BME280;11795;47.054;15.408;2022-12-18T07:28:58;99120;;;-2.8;90.7
23253;BME280;11795;47.054;15.408;2022-12-18T07:30:57;99120;;;-2.6;90.6
23253;BME280;11795;47.054;15.408;2022-12-18T07:32:57;99130;;;-2.6;90.1
23253;BME280;11795;47.054;15.408;2022-12-18T07:34:57;99140;;;-2.7;89.9
23253;BME280;11795;47.054;15.408;2022-12-18T07:36:57;99130;;;-2.5;89.6
23253;BME280;11795;47.054;15.408;2022-12-18T07:38:57;99130;;;-2.5;89.7
23253;BME280;11795;47.054;15.408;2022-12-18T07:41:00;99130;;;-2.4;89.6
23253;BME280;11795;47.054;15.408;2022-12-18T07:42:57;99140;;;-2.4;89.1
23253;BME280;11795;47.054;15.408;2022-12-18T07:44:57;99140;;;-2.4;89.3
23253;BME280;11795;47.054;15.408;2022-12-18T07:46:57;99140;;;-2.2;88.8
23253;BME280;11795;47.054;15.408;2022-12-18T07:48:57;99140;;;-2.3;88.7
23253;BME280;11795;47.054;15.408;2022-12-18T07:50:58;99140;;;-2.1;88.7
23253;BME280;11795;47.054;15.408;2022-12-18T07:52:57;99140;;;-2.1;88.0
23253;BME280;11795;47.054;15.408;2022-12-18T07:54:57;99150;;;-2.1;88.3
23253;BME280;11795;47.054;15.408;2022-12-18T07:56:57;99150;;;-1.9;87.9
23253;BME280;11795;47.054;15.408;2022-12-18T07:58:57;99150;;;-2.0;87.2
23253;BME280;11795;47.054;15.408;2022-12-18T08:01:02;99150;;;-1.8;86.6
23253;BME280;11795;47.054;15.408;2022-12-18T08:02:57;99160;;;-1.8;86.6
23253;BME280;11795;47.054;15.408;2022-12-18T08:04:57;99160;;;-1.8;86.6
23253;BME280;11795;47.054;15.408;2022-12-18T08:06:57;99160;;;-1.7;85.9
23253;BME280;11795;47.054;15.408;2022-12-18T08:08:57;99160;;;-1.6;86.3
23253;BME280;11795;47.054;15.408;2022-12-18T08:10:57;99160;;;-1.4;86.3
23253;BME280;11795;47.054;15.408;2022-12-18T08:12:57;99160;;;-1.4;85.2
23253;BME280;11795;47.054;15.408;2022-12-18T08:14:57;99160;;;-1.4;84.6
23253;BME280;11795;47.054;15.408;2022-12-18T08:16:57;99160;;;-1.1;84.2
23253;BME280;11795;47.054;15.408;2022-12-18T08:18:57;99160;;;-1.2;84.1
23253;BME280;11795;47.054;15.408;2022-12-18T08:20:57;99170;;;-1.0;84.1
23253;BME280;11795;47.054;15.408;2022-12-18T08:22:58;99170;;;-1.1;82.5
23253;BME280;11795;47.054;15.408;2022-12-18T08:24:57;99170;;;-1.1;83.0
23253;BME280;11795;47.054;15.408;2022-12-18T08:26:57;99180;;;-1.0;82.7
23253;BME280;11795;47.054;15.408;2022-12-18T08:28:59;99170;;;-1.0;83.0
23253;BME280;11795;47.054;15.408;2022-12-18T08:30:57;99160;;;-1.0;82.1
23253;BME280;11795;47.054;15.408;2022-12-18T08:32:58;99150;;;-1.0;82.0
23253;BME280;11795;47.054;15.408;2022-12-18T08:34:57;99140;;;-1.1;82.2
23253;BME280;11795;47.054;15.408;2022-12-18T08:36:57;99140;;;-1.0;81.6
23253;BME280;11795;47.054;15.408;2022-12-18T08:38:57;99150;;;-1.0;81.9
23253;BME280;11795;47.054;15.408;2022-12-18T08:40:58;99160;;;-1.0;82.1
23253;BME280;11795;47.054;15.408;2022-12-18T08:43:07;99160;;;-1.0;80.4
23253;BME280;11795;47.054;15.408;2022-12-18T08:44:57;99160;;;-1.1;80.5
23253;BME280;11795;47.054;15.408;2022-12-18T08:46:57;99160;;;-1.0;80.5
23253;BME280;11795;47.054;15.408;2022-12-18T08:48:57;99170;;;-1.1;80.7
23253;BME280;11795;47.054;15.408;2022-12-18T08:50:58;99170;;;-0.9;80.8
23253;BME280;11795;47.054;15.408;2022-12-18T08:52:57;99170;;;-0.9;80.3
23253;BME280;11795;47.054;15.408;2022-12-18T08:54:57;99170;;;-0.9;80.4
23253;BME280;11795;47.054;15.408;2022-12-18T08:56:57;99170;;;-0.9;79.7
23253;BME280;11795;47.054;15.408;2022-12-18T08:58:57;99170;;;-0.9;80.2
23253;BME280;11795;47.054;15.408;2022-12-18T09:00:59;99170;;;-0.9;80.3
23253;BME280;11795;47.054;15.408;2022-12-18T09:02:57;99170;;;-0.8;80.2
23253;BME280;11795;47.054;15.408;2022-12-18T09:04:57;99180;;;-0.8;80.2
23253;BME280;11795;47.054;15.408;2022-12-18T09:06:57;99170;;;-0.6;80.0
23253;BME280;11795;47.054;15.408;2022-12-18T09:08:57;99170;;;-0.8;80.0
23253;BME280;11795;47.054;15.408;2022-12-18T09:10:57;99170;;;-0.7;80.1
23253;BME280;11795;47.054;15.408;2022-12-18T09:12:57;99180;;;-0.8;80.5
23253;BME280;11795;47.054;15.408;2022-12-18T09:14:57;99180;;;-0.7;80.6
23253;BME280;11795;47.054;15.408;2022-12-18T09:16:57;99180;;;-0.5;80.2
23253;BME280;11795;47.054;15.408;2022-12-18T09:19:00;99190;;;-0.5;80.6
23253;BME280;11795;47.054;15.408;2022-12-18T09:20:57;99190;;;-0.5;79.9
23253;BME280;11795;47.054;15.408;2022-12-18T09:22:57;99190;;;-0.3;80.3
23253;BME280;11795;47.054;15.408;2022-12-18T09:24:57;99190;;;0.1;78.9
23253;BME280;11795;47.054;15.408;2022-12-18T09:26:57;99190;;;0.5;76.7
23253;BME280;11795;47.054;15.408;2022-12-18T09:28:57;99190;;;0.7;77.6
23253;BME280;11795;47.054;15.408;2022-12-18T09:30:57;99190;;;0.9;75.7
23253;BME280;11795;47.054;15.408;2022-12-18T09:32:57;99190;;;1.0;75.1
23253;BME280;11795;47.054;15.408;2022-12-18T09:34:57;99190;;;0.8;75.1
23253;BME280;11795;47.054;15.408;2022-12-18T09:36:57;99190;;;0.8;74.2
23253;BME280;11795;47.054;15.408;2022-12-18T09:38:57;99190;;;0.4;75.0
23253;BME280;11795;47.054;15.408;2022-12-18T09:41:00;99190;;;0.6;76.6
23253;BME280;11795;47.054;15.408;2022-12-18T09:42:59;99180;;;0.7;75.9
23253;BME280;11795;47.054;15.408;2022-12-18T09:44:58;99180;;;0.7;75.3
23253;BME280;11795;47.054;15.408;2022-12-18T09:47:07;99180;;;0.9;75.5
23253;BME280;11795;47.054;15.408;2022-12-18T09:49:00;99180;;;1.0;76.0
23253;BME280;11795;47.054;15.408;2022-12-18T09:51:00;99170;;;1.4;74.0
23253;BME280;11795;47.054;15.408;2022-12-18T09:53:02;99180;;;1.5;72.9
23253;BME280;11795;47.054;15.408;2022-12-18T09:55:01;99170;;;1.3;72.8
23253;BME280;11795;47.054;15.408;2022-12-18T09:56:57;99170;;;1.4;73.0
23253;BME280;11795;47.054;15.408;2022-12-18T09:58:59;99180;;;1.2;72.7
23253;BME280;11795;47.054;15.408;2022-12-18T10:00:57;99170;;;1.2;72.9
23253;BME280;11795;47.054;15.408;2022-12-18T10:03:00;99170;;;1.0;72.3
23253;BME280;11795;47.054;15.408;2022-12-18T10:05:03;99170;;;0.6;72.8
23253;BME280;11795;47.054;15.408;2022-12-18T10:07:01;99170;;;0.6;72.9
23253;BME280;11795;47.054;15.408;2022-12-18T10:09:00;99170;;;0.4;73.2
23253;BME280;11795;47.054;15.408;2022-12-18T10:11:01;99160;;;0.4;74.2
23253;BME280;11795;47.054;15.408;2022-12-18T10:13:05;99160;;;0.3;75.0
23253;BME280;11795;47.054;15.408;2022-12-18T10:15:04;99160;;;0.4;74.6
23253;BME280;11795;47.054;15.408;2022-12-18T10:17:03;99170;;;0.4;74.6
23253;BME280;11795;47.054;15.408;2022-12-18T10:19:04;99170;;;0.3;74.5
23253;BME280;11795;47.054;15.408;2022-12-18T10:21:01;99160;;;0.2;74.8
23253;BME280;11795;47.054;15.408;2022-12-18T10:23:02;99160;;;0.0;75.1
23253;BME280;11795;47.054;15.408;2022-12-18T10:25:02;99170;;;-0.1;75.8
23253;BME280;11795;47.054;15.408;2022-12-18T10:27:07;99170;;;0.0;76.0
23253;BME280;11795;47.054;15.408;2022-12-18T10:28:58;99170;;;-0.1;75.3
23253;BME280;11795;47.054;15.408;2022-12-18T10:30:58;99170;;;-0.1;75.9
23253;BME280;11795;47.054;15.408;2022-12-18T10:33:00;99170;;;-0.3;75.5
23253;BME280;11795;47.054;15.408;2022-12-18T10:34:57;99170;;;-0.4;76.3
23253;BME280;11795;47.054;15.408;2022-12-18T10:36:59;99170;;;-0.3;76.7
23253;BME280;11795;47.054;15.408;2022-12-18T10:39:14;99170;;;-0.2;76.9
23253;BME280;11795;47.054;15.408;2022-12-18T10:40:59;99170;;;-0.2;76.8
23253;BME280;11795;47.054;15.408;2022-12-18T10:43:10;99170;;;-0.3;76.5
23253;BME280;11795;47.054;15.408;2022-12-18T10:45:01;99170;;;-0.3;76.5
23253;BME280;11795;47.054;15.408;2022-12-18T10:47:03;99170;;;-0.5;77.4
23253;BME280;11795;47.054;15.408;2022-12-18T10:48:57;99170;;;-0.5;77.9
23253;BME280;11795;47.054;15.408;2022-12-18T10:50:57;99170;;;-0.4;77.5
23253;BME280;11795;47.054;15.408;2022-12-18T10:52:58;99160;;;-0.4;77.9
23253;BME280;11795;47.054;15.408;2022-12-18T10:55:01;99160;;;-0.5;78.5
23253;BME280;11795;47.054;15.408;2022-12-18T10:57:15;99150;;;-0.5;77.6
23253;BME280;11795;47.054;15.408;2022-12-18T10:58:59;99150;;;-0.6;77.9
23253;BME280;11795;47.054;15.408;2022-12-18T11:01:03;99150;;;-0.5;77.7
23253;BME280;11795;47.054;15.408;2022-12-18T11:02:57;99150;;;-0.6;77.8
23253;BME280;11795;47.054;15.408;2022-12-18T11:04:57;99150;;;-0.7;78.3
23253;BME280;11795;47.054;15.408;2022-12-18T11:06:59;99150;;;-0.6;78.5
23253;BME280;11795;47.054;15.408;2022-12-18T11:08:59;99160;;;-0.5;78.3
23253;BME280;11795;47.054;15.408;2022-12-18T11:10:57;99150;;;-0.4;78.5